createdAt,value
2022-08-23T00:02:26.703Z,6.50
2022-08-23T00:05:08.167Z,6.30
2022-08-23T00:07:39.674Z,5.70
2022-08-23T00:10:11.678Z,4.95
2022-08-23T00:12:40.675Z,4.80
2022-08-23T00:15:10.896Z,5.97
2022-08-23T00:17:42.226Z,5.60
2022-08-23T00:20:14.004Z,5.93
2022-08-23T00:22:42.146Z,6.47
2022-08-23T00:25:13.783Z,5.95
2022-08-23T00:27:42.174Z,5.97
2022-08-23T00:30:12.616Z,6.03
2022-08-23T00:32:41.549Z,5.45
2022-08-23T00:35:11.554Z,4.47
2022-08-23T00:37:40.074Z,4.03
2022-08-23T00:40:12.263Z,3.90
2022-08-23T00:43:02.642Z,4.10
2022-08-23T00:45:52.239Z,4.10
2022-08-23T00:48:20.670Z,4.00
2022-08-23T00:50:52.737Z,4.45
2022-08-23T00:53:24.086Z,3.78
2022-08-23T00:55:57.325Z,4.40
2022-08-23T00:58:26.644Z,3.80
2022-08-23T01:00:56.990Z,4.43
2022-08-23T01:03:27.291Z,5.15
2022-08-23T01:05:59.807Z,5.38
2022-08-23T01:08:28.559Z,4.28
2022-08-23T01:11:01.199Z,3.80
2022-08-23T01:13:36.065Z,3.25
2022-08-23T01:16:08.913Z,3.55
2022-08-23T01:18:38.178Z,3.78
2022-08-23T01:21:13.656Z,3.80
2022-08-23T01:23:45.359Z,3.58
2022-08-23T01:26:14.476Z,4.95
2022-08-23T01:28:50.320Z,4.85
2022-08-23T01:31:19.325Z,5.22
2022-08-23T01:33:50.346Z,4.88
2022-08-23T01:36:18.648Z,4.43
2022-08-23T01:38:48.412Z,4.65
2022-08-23T01:41:16.556Z,4.10
2022-08-23T01:43:45.115Z,4.20
2022-08-23T01:46:18.048Z,3.88
2022-08-23T01:48:47.100Z,3.53
2022-08-23T01:51:16.864Z,3.25
2022-08-23T01:53:46.689Z,3.03
2022-08-23T01:56:27.605Z,3.00
2022-08-23T01:59:08.566Z,3.25
2022-08-23T02:01:37.119Z,4.05
2022-08-23T02:04:05.739Z,3.88
2022-08-23T02:06:34.747Z,3.42
2022-08-23T02:09:03.892Z,4.15
2022-08-23T02:11:35.554Z,4.38
2022-08-23T02:14:06.648Z,4.75
2022-08-23T02:16:37.446Z,4.18
2022-08-23T02:19:08.696Z,5.07
2022-08-23T02:21:38.049Z,5.10
2022-08-23T02:24:08.432Z,5.35
2022-08-23T02:26:38.987Z,5.57
2022-08-23T02:29:07.715Z,5.93
2022-08-23T02:31:36.154Z,5.20
2022-08-23T02:34:06.072Z,5.07
2022-08-23T02:36:34.943Z,5.50
2022-08-23T02:39:03.155Z,5.38
2022-08-23T02:41:31.774Z,4.93
2022-08-23T02:44:01.635Z,3.95
2022-08-23T02:46:29.827Z,4.53
2022-08-23T02:48:58.069Z,4.82
2022-08-23T02:51:26.830Z,4.20
2022-08-23T02:53:54.910Z,4.00
2022-08-23T02:56:23.281Z,4.63
2022-08-23T02:58:54.196Z,4.57
2022-08-23T03:01:28.668Z,4.80
2022-08-23T03:03:58.600Z,5.00
2022-08-23T03:06:27.053Z,4.75
2022-08-23T03:08:55.651Z,4.85
2022-08-23T03:11:25.124Z,5.43
2022-08-23T03:13:54.832Z,5.63
2022-08-23T03:16:24.735Z,5.38
2022-08-23T03:18:53.248Z,4.90
2022-08-23T03:21:22.222Z,6.85
2022-08-23T03:23:50.651Z,5.57
2022-08-23T03:26:18.974Z,6.03
2022-08-23T03:28:47.828Z,6.25
2022-08-23T03:31:17.128Z,7.03
2022-08-23T03:33:47.399Z,6.55
2022-08-23T03:36:16.309Z,7.63
2022-08-23T03:38:45.404Z,7.60
2022-08-23T03:41:14.205Z,7.65
2022-08-23T03:43:42.443Z,8.70
2022-08-23T03:46:10.587Z,7.75
2022-08-23T03:48:40.333Z,9.15
2022-08-23T03:51:09.714Z,9.45
2022-08-23T03:53:37.844Z,9.00
2022-08-23T03:56:06.737Z,8.88
2022-08-23T03:58:35.007Z,9.82
2022-08-23T04:01:03.243Z,9.15
2022-08-23T04:03:32.239Z,11.20
2022-08-23T04:06:00.431Z,12.05
2022-08-23T04:08:33.368Z,10.75
2022-08-23T04:11:02.377Z,11.85
2022-08-23T04:13:30.681Z,13.73
2022-08-23T04:15:59.469Z,12.10
2022-08-23T04:18:30.094Z,13.98
2022-08-23T04:20:59.972Z,13.80
2022-08-23T04:23:29.719Z,13.68
2022-08-23T04:25:58.044Z,13.40
2022-08-23T04:28:27.070Z,12.30
2022-08-23T04:30:55.378Z,12.60
2022-08-23T04:33:24.104Z,13.93
2022-08-23T04:35:52.571Z,13.32
2022-08-23T04:38:25.085Z,13.18
2022-08-23T04:41:12.725Z,11.57
2022-08-23T04:43:41.497Z,11.15
2022-08-23T04:46:10.409Z,11.32
2022-08-23T04:48:39.283Z,12.48
2022-08-23T04:51:07.892Z,12.75
2022-08-23T04:53:36.186Z,12.40
2022-08-23T04:56:07.109Z,11.77
2022-08-23T04:58:36.715Z,11.77
2022-08-23T05:01:08.033Z,11.90
2022-08-23T05:03:36.709Z,12.68
2022-08-23T05:06:05.314Z,11.43
2022-08-23T05:08:33.606Z,13.80
2022-08-23T05:11:02.902Z,14.20
2022-08-23T05:13:34.769Z,14.93
2022-08-23T05:16:03.850Z,14.48
2022-08-23T05:18:32.149Z,13.25
2022-08-23T05:21:00.436Z,12.85
2022-08-23T05:23:32.348Z,14.32
2022-08-23T05:26:02.006Z,15.15
2022-08-23T05:28:34.622Z,13.05
2022-08-23T05:31:06.100Z,13.85
2022-08-23T05:33:40.699Z,14.77
2022-08-23T05:36:10.646Z,14.43
2022-08-23T05:38:39.648Z,14.35
2022-08-23T05:41:08.740Z,14.82
2022-08-23T05:43:38.559Z,12.50
2022-08-23T05:46:12.649Z,15.63
2022-08-23T05:48:43.523Z,15.23
2022-08-23T05:51:13.760Z,16.33
2022-08-23T05:53:43.053Z,17.38
2022-08-23T05:56:13.059Z,14.85
2022-08-23T05:58:43.601Z,12.75
2022-08-23T06:01:12.386Z,14.95
2022-08-23T06:03:41.675Z,17.65
2022-08-23T06:06:10.576Z,14.55
2022-08-23T06:08:40.241Z,14.60
2022-08-23T06:11:11.075Z,14.90
2022-08-23T06:13:43.935Z,14.60
2022-08-23T06:16:13.258Z,13.93
2022-08-23T06:18:44.521Z,14.85
2022-08-23T06:21:14.947Z,14.75
2022-08-23T06:23:44.263Z,13.93
2022-08-23T06:26:14.067Z,12.95
2022-08-23T06:28:50.833Z,13.60
2022-08-23T06:31:42.060Z,14.13
2022-08-23T06:34:12.730Z,11.43
2022-08-23T06:36:42.043Z,13.80
2022-08-23T06:39:12.239Z,13.07
2022-08-23T06:41:40.369Z,12.25
2022-08-23T06:44:10.544Z,13.50
2022-08-23T06:46:39.287Z,14.20
2022-08-23T06:49:08.099Z,12.60
2022-08-23T06:51:38.472Z,12.68
2022-08-23T06:54:10.014Z,12.13
2022-08-23T06:56:42.241Z,11.75
2022-08-23T06:59:12.252Z,12.98
2022-08-23T07:01:46.065Z,11.75
2022-08-23T07:04:21.417Z,13.25
2022-08-23T07:06:49.623Z,13.75
2022-08-23T07:09:18.773Z,14.63
2022-08-23T07:11:47.012Z,14.40
2022-08-23T07:14:19.073Z,15.63
2022-08-23T07:16:50.326Z,15.15
2022-08-23T07:19:19.459Z,13.43
2022-08-23T07:21:48.836Z,13.63
2022-08-23T07:24:17.949Z,19.30
2022-08-23T07:26:48.854Z,22.20
2022-08-23T07:29:18.581Z,21.08
2022-08-23T07:31:49.626Z,19.83
2022-08-23T07:34:18.802Z,23.27
2022-08-23T07:36:48.311Z,20.08
2022-08-23T07:39:17.582Z,20.23
2022-08-23T07:41:46.949Z,21.30
2022-08-23T07:44:19.124Z,22.08
2022-08-23T07:46:51.421Z,22.83
2022-08-23T07:49:20.039Z,23.17
2022-08-23T07:51:50.528Z,22.85
2022-08-23T07:54:20.317Z,20.98
2022-08-23T07:56:48.741Z,21.65
2022-08-23T07:59:16.871Z,28.23
2022-08-23T08:01:46.552Z,24.65
2022-08-23T08:04:15.060Z,25.98
2022-08-23T08:06:46.408Z,28.90
2022-08-23T08:09:15.585Z,26.10
2022-08-23T08:11:47.641Z,29.77
2022-08-23T08:14:17.267Z,26.73
2022-08-23T08:16:49.864Z,28.63
2022-08-23T08:19:19.921Z,30.55
2022-08-23T08:21:48.670Z,24.23
2022-08-23T08:24:17.896Z,31.15
2022-08-23T08:26:46.926Z,25.60
2022-08-23T08:29:15.545Z,24.38
2022-08-23T08:31:50.306Z,20.10
2022-08-23T08:34:21.023Z,23.00
2022-08-23T08:36:52.023Z,21.08
2022-08-23T08:39:23.731Z,25.25
2022-08-23T08:42:08.866Z,25.25
2022-08-23T08:44:40.552Z,23.85
2022-08-23T08:47:15.754Z,23.58
2022-08-23T08:49:52.521Z,19.00
2022-08-23T08:52:24.981Z,22.83
2022-08-23T08:54:58.881Z,23.95
2022-08-23T08:57:27.835Z,22.08
2022-08-23T09:00:00.763Z,21.17
2022-08-23T09:02:34.848Z,19.00
2022-08-23T09:05:05.904Z,20.25
2022-08-23T09:07:43.300Z,19.70
2022-08-23T09:10:26.342Z,19.25
2022-08-23T09:13:03.760Z,18.42
2022-08-23T09:15:42.890Z,18.42
2022-08-23T09:18:15.941Z,18.77
2022-08-23T09:20:45.917Z,16.25
2022-08-23T09:23:18.295Z,19.83
2022-08-23T09:25:53.326Z,18.35
2022-08-23T09:28:21.905Z,19.00
2022-08-23T09:30:53.596Z,16.70
2022-08-23T09:33:26.272Z,17.42
2022-08-23T09:36:15.320Z,16.10
2022-08-23T09:38:53.209Z,18.02
2022-08-23T09:41:27.959Z,15.00
2022-08-23T09:43:59.089Z,18.90
2022-08-23T09:46:30.541Z,19.52
2022-08-23T09:49:01.628Z,18.58
2022-08-23T09:51:34.993Z,17.23
2022-08-23T09:54:07.870Z,16.70
2022-08-23T09:56:39.727Z,17.40
2022-08-23T09:59:26.865Z,17.58
2022-08-23T10:01:57.854Z,20.20
2022-08-23T10:04:41.378Z,18.27
2022-08-23T10:07:28.205Z,16.75
2022-08-23T10:09:56.780Z,14.68
2022-08-23T10:12:25.298Z,16.77
2022-08-23T10:14:53.839Z,16.83
2022-08-23T10:17:28.976Z,18.02
2022-08-23T10:20:06.170Z,18.90
2022-08-23T10:22:42.025Z,16.20
2022-08-23T10:25:14.154Z,17.95
2022-08-23T10:28:06.140Z,19.48
2022-08-23T10:30:50.029Z,20.05
2022-08-23T10:33:22.074Z,19.25
2022-08-23T10:36:01.071Z,20.63
2022-08-23T10:38:36.718Z,20.75
2022-08-23T10:41:19.036Z,21.63
2022-08-23T10:43:53.844Z,20.83
2022-08-23T10:46:23.877Z,21.15
2022-08-23T10:48:54.076Z,21.48
2022-08-23T10:51:31.684Z,19.67
2022-08-23T10:54:04.140Z,19.60
2022-08-23T10:56:32.560Z,21.30
2022-08-23T10:59:03.923Z,19.23
2022-08-23T11:04:03.935Z,20.73
2022-08-23T11:06:47.822Z,20.75
2022-08-23T11:09:50.305Z,16.85
2022-08-23T11:12:24.682Z,18.40
2022-08-23T11:15:11.466Z,16.60
2022-08-23T11:17:45.298Z,15.30
2022-08-23T11:20:15.136Z,17.60
2022-08-23T11:23:13.649Z,16.25
2022-08-23T11:25:43.808Z,17.40
2022-08-23T11:28:37.810Z,16.10
2022-08-23T11:31:21.836Z,18.52
2022-08-23T11:33:53.204Z,16.88
2022-08-23T11:36:24.031Z,17.50
2022-08-23T11:39:06.552Z,17.85
2022-08-23T11:41:38.088Z,17.38
2022-08-23T11:44:24.827Z,16.77
2022-08-23T11:47:04.533Z,17.35
2022-08-23T11:50:08.795Z,17.85
2022-08-23T11:52:54.310Z,17.67
2022-08-23T11:55:30.735Z,16.92
2022-08-23T11:58:14.014Z,18.10
2022-08-23T12:00:55.598Z,17.23
2022-08-23T12:03:27.107Z,16.05
2022-08-23T12:06:16.019Z,18.52
2022-08-23T12:08:52.547Z,17.63
2022-08-23T12:11:24.057Z,16.88
2022-08-23T12:14:01.531Z,17.23
2022-08-23T12:16:49.525Z,19.25
2022-08-23T12:19:26.205Z,18.08
2022-08-23T12:21:56.064Z,17.50
2022-08-23T12:24:27.507Z,19.30
2022-08-23T12:27:02.261Z,19.90
2022-08-23T12:29:41.662Z,19.00
2022-08-23T12:32:15.160Z,18.40
2022-08-23T12:34:53.738Z,18.77
2022-08-23T12:37:32.642Z,16.13
2022-08-23T12:40:03.369Z,17.90
2022-08-23T12:42:35.505Z,19.67
2022-08-23T12:45:08.213Z,17.20
2022-08-23T12:47:40.913Z,17.55
2022-08-23T12:50:21.086Z,17.40
2022-08-23T12:52:59.583Z,16.83
2022-08-23T12:55:32.863Z,17.35
2022-08-23T12:58:02.755Z,17.88
2022-08-23T13:00:34.181Z,19.58
2022-08-23T13:03:05.145Z,19.02
2022-08-23T13:05:39.197Z,19.45
2022-08-23T13:08:09.727Z,18.45
2022-08-23T13:10:41.639Z,17.45
2022-08-23T13:13:13.964Z,18.67
2022-08-23T13:15:46.875Z,17.50
2022-08-23T13:18:29.384Z,19.83
2022-08-23T13:21:20.496Z,19.60
2022-08-23T13:26:28.678Z,18.70
2022-08-23T13:29:11.533Z,20.42
2022-08-23T13:31:53.353Z,20.50
2022-08-23T13:34:39.653Z,18.90
2022-08-23T13:37:21.677Z,19.48
2022-08-23T13:39:54.414Z,19.23
2022-08-23T13:42:31.940Z,17.02
2022-08-23T13:45:08.329Z,18.98
2022-08-23T13:47:37.745Z,18.27
2022-08-23T13:50:11.539Z,17.90
2022-08-23T13:53:03.192Z,17.40
2022-08-23T13:55:29.425Z,18.85
2022-08-23T13:57:59.208Z,18.05
2022-08-23T14:00:28.771Z,18.23
2022-08-23T14:02:56.975Z,17.17
2022-08-23T14:05:25.440Z,18.25
2022-08-23T14:07:53.845Z,17.40
2022-08-23T14:10:23.312Z,18.77
2022-08-23T14:12:54.115Z,18.20
2022-08-23T14:15:54.646Z,19.65
2022-08-23T14:18:12.865Z,19.33
2022-08-23T14:20:46.249Z,19.25
2022-08-23T14:23:14.998Z,19.83
2022-08-23T14:25:43.569Z,18.15
2022-08-23T14:28:11.685Z,18.92
2022-08-23T14:30:40.330Z,19.80
2022-08-23T14:33:08.738Z,18.42
2022-08-23T14:35:38.434Z,19.15
2022-08-23T14:38:07.946Z,17.77
2022-08-23T14:40:36.690Z,19.13
2022-08-23T14:43:06.018Z,15.88
2022-08-23T14:45:34.517Z,17.45
2022-08-23T14:48:04.022Z,17.50
2022-08-23T14:50:32.401Z,17.33
2022-08-23T14:53:04.931Z,18.48
2022-08-23T14:55:33.294Z,18.15
2022-08-23T14:58:01.776Z,19.38
2022-08-23T15:00:31.261Z,17.67
2022-08-23T15:02:59.763Z,19.20
2022-08-23T15:05:28.088Z,17.80
2022-08-23T15:07:56.255Z,19.67
2022-08-23T15:13:22.123Z,17.90
2022-08-23T15:15:55.519Z,16.30
2022-08-23T15:18:24.250Z,16.33
2022-08-23T15:20:52.666Z,15.48
2022-08-23T15:23:21.133Z,17.17
2022-08-23T15:25:51.472Z,17.70
2022-08-23T15:28:22.473Z,16.10
2022-08-23T15:30:51.677Z,14.98
2022-08-23T15:33:24.683Z,15.73
2022-08-23T15:35:55.995Z,15.98
2022-08-23T15:38:25.878Z,16.05
2022-08-23T15:40:55.898Z,16.30
2022-08-23T15:43:25.875Z,17.65
2022-08-23T15:46:07.283Z,16.80
2022-08-23T15:48:38.022Z,17.20
2022-08-23T15:51:07.028Z,16.70
2022-08-23T15:53:35.400Z,16.35
2022-08-23T15:58:38.497Z,15.30
2022-08-23T16:01:08.093Z,16.60
2022-08-23T16:03:36.995Z,16.40
2022-08-23T16:06:05.630Z,15.50
2022-08-23T16:08:38.439Z,14.93
2022-08-23T16:11:12.376Z,16.73
2022-08-23T16:13:42.748Z,16.50
2022-08-23T16:16:17.855Z,18.25
2022-08-23T16:18:46.442Z,16.70
2022-08-23T16:21:15.600Z,16.48
2022-08-23T16:23:44.562Z,16.52
2022-08-23T16:26:16.666Z,16.50
2022-08-23T16:28:51.622Z,17.23
2022-08-23T16:31:20.401Z,18.08
2022-08-23T16:33:48.919Z,18.25
2022-08-23T16:36:19.519Z,17.60
2022-08-23T16:38:49.508Z,16.75
2022-08-23T16:41:19.241Z,17.10
2022-08-23T16:43:47.374Z,17.83
2022-08-23T16:46:17.010Z,16.75
2022-08-23T16:48:45.924Z,16.98
2022-08-23T16:51:14.442Z,17.02
2022-08-23T16:53:43.486Z,17.00
2022-08-23T16:58:45.766Z,15.85
2022-08-23T17:01:14.926Z,16.52
2022-08-23T17:03:44.105Z,17.40
2022-08-23T17:06:13.096Z,17.08
2022-08-23T17:08:41.353Z,16.35
2022-08-23T17:11:12.243Z,16.42
2022-08-23T17:13:42.544Z,17.13
2022-08-23T17:16:12.956Z,18.17
2022-08-23T17:18:41.606Z,16.90
2022-08-23T17:21:10.242Z,16.52
2022-08-23T17:23:40.611Z,14.82
2022-08-23T17:26:09.593Z,15.57
2022-08-23T17:28:38.008Z,15.30
2022-08-23T17:31:06.715Z,14.20
2022-08-23T17:33:36.737Z,14.70
2022-08-23T17:36:07.151Z,14.88
2022-08-23T17:38:36.469Z,14.18
2022-08-23T17:41:04.650Z,13.95
2022-08-23T17:43:33.013Z,15.00
2022-08-23T17:46:01.714Z,14.55
2022-08-23T17:48:30.106Z,16.02
2022-08-23T17:51:00.099Z,13.93
2022-08-23T17:53:28.888Z,15.30
2022-08-23T17:55:57.479Z,14.98
2022-08-23T17:58:26.055Z,15.07
2022-08-23T18:00:56.094Z,12.60
2022-08-23T18:03:24.592Z,14.00
2022-08-23T18:05:53.263Z,16.58
2022-08-23T18:08:23.274Z,16.95
2022-08-23T18:10:51.849Z,15.48
2022-08-23T18:13:20.786Z,13.88
2022-08-23T18:15:49.186Z,13.13
2022-08-23T18:18:17.726Z,13.05
2022-08-23T18:20:45.938Z,12.50
2022-08-23T18:23:15.716Z,12.32
2022-08-23T18:25:45.940Z,13.45
2022-08-23T18:28:14.326Z,13.13
2022-08-23T18:30:48.291Z,14.35
2022-08-23T18:33:17.790Z,14.35
2022-08-23T18:35:47.730Z,13.70
2022-08-23T18:38:16.394Z,13.07
2022-08-23T18:40:47.982Z,16.58
2022-08-23T18:43:19.391Z,13.70
2022-08-23T18:45:49.410Z,14.98
2022-08-23T18:48:18.220Z,12.80
2022-08-23T18:50:46.569Z,14.93
2022-08-23T18:53:14.818Z,12.63
2022-08-23T18:55:43.470Z,14.13
2022-08-23T18:58:13.606Z,13.32
2022-08-23T19:00:45.072Z,15.15
2022-08-23T19:03:16.632Z,13.60
2022-08-23T19:05:44.779Z,13.73
2022-08-23T19:08:14.047Z,15.15
2022-08-23T19:10:43.151Z,13.52
2022-08-23T19:13:13.331Z,15.88
2022-08-23T19:15:42.151Z,16.38
2022-08-23T19:18:11.211Z,16.08
2022-08-23T19:20:39.837Z,15.65
2022-08-23T19:23:08.493Z,15.05
2022-08-23T19:25:38.679Z,15.80
2022-08-23T19:28:07.159Z,15.65
2022-08-23T19:30:37.051Z,14.50
2022-08-23T19:33:08.709Z,15.30
2022-08-23T19:35:37.321Z,12.95
2022-08-23T19:38:05.695Z,14.75
2022-08-23T19:40:34.377Z,14.85
2022-08-23T19:43:02.971Z,15.45
2022-08-23T19:45:32.404Z,15.68
2022-08-23T19:48:02.932Z,16.05
2022-08-23T19:50:31.381Z,14.63
2022-08-23T19:53:00.133Z,16.40
2022-08-23T19:55:29.330Z,14.98
2022-08-23T19:57:58.115Z,15.27
2022-08-23T20:00:27.653Z,14.93
2022-08-23T20:02:55.734Z,15.23
2022-08-23T20:05:25.619Z,14.80
2022-08-23T20:07:53.831Z,15.98
2022-08-23T20:10:22.412Z,18.25
2022-08-23T20:12:50.874Z,15.52
2022-08-23T20:15:19.130Z,16.00
2022-08-23T20:17:47.302Z,15.38
2022-08-23T20:20:15.693Z,16.45
2022-08-23T20:23:03.034Z,16.73
2022-08-23T20:25:31.629Z,20.70
2022-08-23T20:27:59.882Z,16.65
2022-08-23T20:30:28.198Z,15.80
2022-08-23T20:32:56.639Z,16.58
2022-08-23T20:35:25.032Z,16.92
2022-08-23T20:37:54.664Z,17.52
2022-08-23T20:40:26.115Z,17.20
2022-08-23T20:42:54.299Z,15.82
2022-08-23T20:45:22.416Z,17.63
2022-08-23T20:47:50.923Z,19.27
2022-08-23T20:50:19.013Z,20.67
2022-08-23T20:52:47.098Z,20.85
2022-08-23T20:55:16.993Z,20.63
2022-08-23T20:57:45.161Z,19.00
2022-08-23T21:00:14.366Z,19.92
2022-08-23T21:02:42.812Z,20.27
2022-08-23T21:05:11.111Z,19.38
2022-08-23T21:07:40.235Z,17.85
2022-08-23T21:10:10.639Z,18.48
2022-08-23T21:12:40.308Z,20.10
2022-08-23T21:15:11.089Z,20.05
2022-08-23T21:17:39.662Z,20.63
2022-08-23T21:20:08.880Z,21.40
2022-08-23T21:22:37.227Z,21.10
2022-08-23T21:25:06.360Z,46.45
2022-08-23T21:27:35.143Z,29.70
2022-08-23T21:30:06.130Z,25.55
2022-08-23T21:32:34.383Z,21.58
2022-08-23T21:35:03.307Z,22.95
2022-08-23T21:37:31.419Z,23.42
2022-08-23T21:39:59.836Z,21.70
2022-08-23T21:42:28.217Z,21.75
2022-08-23T21:44:56.858Z,23.50
2022-08-23T21:47:26.704Z,22.58
2022-08-23T21:49:54.841Z,19.88
2022-08-23T21:52:23.011Z,19.38
2022-08-23T21:54:51.627Z,19.85
2022-08-23T21:57:19.845Z,19.52
2022-08-23T21:59:51.729Z,19.63
2022-08-23T22:02:20.640Z,16.38
2022-08-23T22:04:50.449Z,18.45
2022-08-23T22:07:18.758Z,19.40
2022-08-23T22:09:47.304Z,18.38
2022-08-23T22:12:15.816Z,19.80
2022-08-23T22:14:47.348Z,18.50
2022-08-23T22:17:17.959Z,19.30
2022-08-23T22:19:46.220Z,18.60
2022-08-23T22:22:15.792Z,16.63
2022-08-23T22:24:44.302Z,19.10
2022-08-23T22:27:13.468Z,18.13
2022-08-23T22:29:41.771Z,18.83
2022-08-23T22:32:13.664Z,18.27
2022-08-23T22:34:41.905Z,17.30
2022-08-23T22:37:09.974Z,18.13
2022-08-23T22:39:39.735Z,18.98
2022-08-23T22:42:09.887Z,20.50
2022-08-23T22:44:38.325Z,18.27
2022-08-23T22:47:07.068Z,18.63
2022-08-23T22:49:35.162Z,19.80
2022-08-23T22:52:03.228Z,20.20
2022-08-23T22:54:31.576Z,17.13
2022-08-23T22:57:00.975Z,18.92
2022-08-23T22:59:32.134Z,17.63
2022-08-23T23:02:02.563Z,17.48
2022-08-23T23:04:32.676Z,17.07
2022-08-23T23:07:00.976Z,17.77
2022-08-23T23:09:29.498Z,17.95
2022-08-23T23:11:57.574Z,17.27
2022-08-23T23:14:26.976Z,17.38
2022-08-23T23:16:55.483Z,16.95
2022-08-23T23:19:41.087Z,19.75
2022-08-23T23:22:11.106Z,19.88
2022-08-23T23:24:40.568Z,18.08
2022-08-23T23:27:09.256Z,20.13
2022-08-23T23:29:38.905Z,19.13
2022-08-23T23:32:07.500Z,18.17
2022-08-23T23:34:38.058Z,20.00
2022-08-23T23:37:06.460Z,20.55
2022-08-23T23:39:34.727Z,23.73
2022-08-23T23:42:02.878Z,21.45
2022-08-23T23:44:32.032Z,21.27
2022-08-23T23:47:02.425Z,22.17
2022-08-23T23:49:32.345Z,22.33
2022-08-23T23:52:03.630Z,23.13
2022-08-23T23:54:32.521Z,25.30
2022-08-23T23:57:00.647Z,25.35
2022-08-23T23:59:29.188Z,22.95
